<?xml version='1.0' encoding='UTF-8'?><gpx version="1.1" creator="JPX - https://github.com/jenetics/jpx" xmlns="http://www.topografix.com/GPX/1/1"><trk><trkseg><trkpt lat="-34.65614558523536" lon="-58.59799008131163"><ele>30.0</ele><time>2026-03-26T13:27:06Z</time></trkpt><trkpt lat="-34.656233204757164" lon="-58.598001043972815"><ele>30.0</ele><time>2026-03-26T13:27:20Z</time></trkpt><trkpt lat="-34.656181739518125" lon="-58.597945910328775"><ele>30.0</ele><time>2026-03-26T13:28:20.999Z</time></trkpt><trkpt lat="-34.65623438050181" lon="-58.597898496188094"><ele>30.0</ele><time>2026-03-26T13:28:23.999Z</time></trkpt><trkpt lat="-34.65629621196926" lon="-58.597825425362196"><ele>30.0</ele><time>2026-03-26T13:28:25.999Z</time></trkpt><trkpt lat="-34.65636228743068" lon="-58.597733851297406"><ele>30.0</ele><time>2026-03-26T13:28:27.999Z</time></trkpt><trkpt lat="-34.656444461423476" lon="-58.59763433271835"><ele>30.2</ele><time>2026-03-26T13:28:29.999Z</time></trkpt><trkpt lat="-34.656515186628596" lon="-58.597540245501634"><ele>30.4</ele><time>2026-03-26T13:28:31.999Z</time></trkpt><trkpt lat="-34.65659244562691" lon="-58.59745327452076"><ele>30.6</ele><time>2026-03-26T13:28:33.999Z</time></trkpt><trkpt lat="-34.65667018417493" lon="-58.5973677584984"><ele>30.8</ele><time>2026-03-26T13:28:35.999Z</time></trkpt><trkpt lat="-34.656720552921705" lon="-58.59729469906274"><ele>31.0</ele><time>2026-03-26T13:28:37.999Z</time></trkpt><trkpt lat="-34.65675881495032" lon="-58.59721813764386"><ele>31.000000000000004</ele><time>2026-03-26T13:28:39.999Z</time></trkpt><trkpt lat="-34.65668203560596" lon="-58.5970888335417"><ele>31.0</ele><time>2026-03-26T13:28:42.999Z</time></trkpt><trkpt lat="-34.65661179765009" lon="-58.59702632039924"><ele>31.0</ele><time>2026-03-26T13:28:44.999Z</time></trkpt><trkpt lat="-34.65655353328681" lon="-58.59697681761234"><ele>31.0</ele><time>2026-03-26T13:28:45.999Z</time></trkpt><trkpt lat="-34.65650494188774" lon="-58.596919189649235"><ele>31.000000000000004</ele><time>2026-03-26T13:28:46.999Z</time></trkpt><trkpt lat="-34.656469192516184" lon="-58.596848681980326"><ele>31.0</ele><time>2026-03-26T13:28:47.999Z</time></trkpt><trkpt lat="-34.656378645714625" lon="-58.59673546911723"><ele>30.6</ele><time>2026-03-26T13:28:49.999Z</time></trkpt><trkpt lat="-34.65633444741607" lon="-58.596680206915245"><ele>30.200000000000003</ele><time>2026-03-26T13:28:50.999Z</time></trkpt><trkpt lat="-34.65624012466064" lon="-58.59658845712934"><ele>29.799999999999997</ele><time>2026-03-26T13:28:52.999Z</time></trkpt><trkpt lat="-34.65617066729596" lon="-58.596502275639175"><ele>29.4</ele><time>2026-03-26T13:28:54.999Z</time></trkpt><trkpt lat="-34.656121526701966" lon="-58.59641398689256"><ele>29.0</ele><time>2026-03-26T13:28:56.999Z</time></trkpt><trkpt lat="-34.656041343726464" lon="-58.59632571676502"><ele>29.0</ele><time>2026-03-26T13:28:58.999Z</time></trkpt><trkpt lat="-34.65594294728869" lon="-58.59623219739986"><ele>29.0</ele><time>2026-03-26T13:29:00.999Z</time></trkpt><trkpt lat="-34.6558930757912" lon="-58.59617282659158"><ele>29.0</ele><time>2026-03-26T13:29:01.999Z</time></trkpt><trkpt lat="-34.65580560596694" lon="-58.59607150748539"><ele>29.0</ele><time>2026-03-26T13:29:03.999Z</time></trkpt><trkpt lat="-34.6557246116508" lon="-58.59598179833059"><ele>29.0</ele><time>2026-03-26T13:29:05.999Z</time></trkpt><trkpt lat="-34.655669767610405" lon="-58.595922695241114"><ele>29.0</ele><time>2026-03-26T13:29:08.999Z</time></trkpt><trkpt lat="-34.65562796540679" lon="-58.59585669911097"><ele>29.0</ele><time>2026-03-26T13:29:12Z</time></trkpt><trkpt lat="-34.65553386441329" lon="-58.595948313262696"><ele>29.0</ele><time>2026-03-26T13:29:14Z</time></trkpt><trkpt lat="-34.65549088339548" lon="-58.59601336900731"><ele>29.0</ele><time>2026-03-26T13:29:16Z</time></trkpt><trkpt lat="-34.655420836649455" lon="-58.59611479066223"><ele>29.0</ele><time>2026-03-26T13:29:18Z</time></trkpt><trkpt lat="-34.655335149723186" lon="-58.596217494871595"><ele>29.166666666666664</ele><time>2026-03-26T13:29:20Z</time></trkpt><trkpt lat="-34.65524243889533" lon="-58.59632463869995"><ele>29.333333333333332</ele><time>2026-03-26T13:29:22Z</time></trkpt><trkpt lat="-34.65519329033505" lon="-58.59638404379207"><ele>29.5</ele><time>2026-03-26T13:29:23Z</time></trkpt><trkpt lat="-34.65513901917373" lon="-58.59644921176601"><ele>29.666666666666664</ele><time>2026-03-26T13:29:24Z</time></trkpt><trkpt lat="-34.65508862475511" lon="-58.596509902901325"><ele>29.833333333333332</ele><time>2026-03-26T13:29:25Z</time></trkpt><trkpt lat="-34.655042837328175" lon="-58.596564553851415"><ele>30.0</ele><time>2026-03-26T13:29:26Z</time></trkpt><trkpt lat="-34.65496231186806" lon="-58.596660677469956"><ele>30.0</ele><time>2026-03-26T13:29:28Z</time></trkpt><trkpt lat="-34.65489535266036" lon="-58.59674486072752"><ele>30.0</ele><time>2026-03-26T13:29:30Z</time></trkpt><trkpt lat="-34.65484501832605" lon="-58.59680721556559"><ele>30.0</ele><time>2026-03-26T13:29:33Z</time></trkpt><trkpt lat="-34.65479704944948" lon="-58.596869693397565"><ele>30.0</ele><time>2026-03-26T13:29:35Z</time></trkpt><trkpt lat="-34.65473200399482" lon="-58.59695696041307"><ele>30.0</ele><time>2026-03-26T13:29:37Z</time></trkpt><trkpt lat="-34.65464453522084" lon="-58.5970621703316"><ele>30.2</ele><time>2026-03-26T13:29:39Z</time></trkpt><trkpt lat="-34.65459639759619" lon="-58.597115578079055"><ele>30.4</ele><time>2026-03-26T13:29:40Z</time></trkpt><trkpt lat="-34.654511538291544" lon="-58.59722146534759"><ele>30.6</ele><time>2026-03-26T13:29:42Z</time></trkpt><trkpt lat="-34.654432314628046" lon="-58.597310745607125"><ele>30.8</ele><time>2026-03-26T13:29:43Z</time></trkpt><trkpt lat="-34.65436308004752" lon="-58.5973970574184"><ele>31.0</ele><time>2026-03-26T13:29:45Z</time></trkpt><trkpt lat="-34.65431891098619" lon="-58.59745391372662"><ele>30.666666666666668</ele><time>2026-03-26T13:29:46Z</time></trkpt><trkpt lat="-34.65423750409891" lon="-58.59754545334248"><ele>30.333333333333336</ele><time>2026-03-26T13:29:48Z</time></trkpt><trkpt lat="-34.65417332361816" lon="-58.59760455316811"><ele>30.0</ele><time>2026-03-26T13:29:51Z</time></trkpt><trkpt lat="-34.654117002002565" lon="-58.59766000114438"><ele>29.666666666666664</ele><time>2026-03-26T13:29:53Z</time></trkpt><trkpt lat="-34.654071805138265" lon="-58.59773538162933"><ele>29.333333333333332</ele><time>2026-03-26T13:29:57Z</time></trkpt><trkpt lat="-34.654017180293906" lon="-58.59783283789736"><ele>29.0</ele><time>2026-03-26T13:30:00Z</time></trkpt><trkpt lat="-34.65396545517966" lon="-58.59791276088556"><ele>28.833333333333332</ele><time>2026-03-26T13:30:02Z</time></trkpt><trkpt lat="-34.65389417923712" lon="-58.597986079487654"><ele>28.666666666666664</ele><time>2026-03-26T13:30:05Z</time></trkpt><trkpt lat="-34.653806470272286" lon="-58.5980902517901"><ele>28.5</ele><time>2026-03-26T13:30:07Z</time></trkpt><trkpt lat="-34.653758171577756" lon="-58.59814948284207"><ele>28.333333333333336</ele><time>2026-03-26T13:30:08Z</time></trkpt><trkpt lat="-34.653706132554376" lon="-58.598208088613084"><ele>28.166666666666668</ele><time>2026-03-26T13:30:09Z</time></trkpt><trkpt lat="-34.65365984587979" lon="-58.59826496170285"><ele>28.0</ele><time>2026-03-26T13:30:10Z</time></trkpt><trkpt lat="-34.653605708590895" lon="-58.59832943479961"><ele>27.799999999999997</ele><time>2026-03-26T13:30:12Z</time></trkpt><trkpt lat="-34.65352826656683" lon="-58.598413745793195"><ele>27.599999999999998</ele><time>2026-03-26T13:30:16Z</time></trkpt><trkpt lat="-34.65345838616939" lon="-58.59849528530999"><ele>27.400000000000002</ele><time>2026-03-26T13:30:18Z</time></trkpt><trkpt lat="-34.65340437780715" lon="-58.598575578836815"><ele>27.200000000000003</ele><time>2026-03-26T13:30:22Z</time></trkpt><trkpt lat="-34.65332398967675" lon="-58.598646215736046"><ele>27.0</ele><time>2026-03-26T13:30:24Z</time></trkpt><trkpt lat="-34.65323757499043" lon="-58.598750100799265"><ele>27.0</ele><time>2026-03-26T13:30:26Z</time></trkpt><trkpt lat="-34.65315102345062" lon="-58.59885415037573"><ele>27.0</ele><time>2026-03-26T13:30:28Z</time></trkpt><trkpt lat="-34.65310573985049" lon="-58.59890858891799"><ele>27.0</ele><time>2026-03-26T13:30:29Z</time></trkpt><trkpt lat="-34.653060448532955" lon="-58.598973266029766"><ele>27.0</ele><time>2026-03-26T13:30:30Z</time></trkpt><trkpt lat="-34.65301090386706" lon="-58.59903299124641"><ele>27.0</ele><time>2026-03-26T13:30:31Z</time></trkpt><trkpt lat="-34.65296503726871" lon="-58.59908840261812"><ele>27.0</ele><time>2026-03-26T13:30:32Z</time></trkpt><trkpt lat="-34.65291330679491" lon="-58.59915164747206"><ele>27.0</ele><time>2026-03-26T13:30:34Z</time></trkpt><trkpt lat="-34.652860047364456" lon="-58.59921360145532"><ele>27.0</ele><time>2026-03-26T13:30:37Z</time></trkpt><trkpt lat="-34.65279337086279" lon="-58.59929731575897"><ele>27.0</ele><time>2026-03-26T13:30:39Z</time></trkpt><trkpt lat="-34.652705480496216" lon="-58.59940113083257"><ele>27.0</ele><time>2026-03-26T13:30:41Z</time></trkpt><trkpt lat="-34.65265447966806" lon="-58.59946349286748"><ele>27.0</ele><time>2026-03-26T13:30:42Z</time></trkpt><trkpt lat="-34.65260800772633" lon="-58.599527280872195"><ele>27.0</ele><time>2026-03-26T13:30:43Z</time></trkpt><trkpt lat="-34.65255700726183" lon="-58.59958106485464"><ele>27.142857142857142</ele><time>2026-03-26T13:30:44Z</time></trkpt><trkpt lat="-34.652509658839605" lon="-58.59964026699279"><ele>27.285714285714285</ele><time>2026-03-26T13:30:45Z</time></trkpt><trkpt lat="-34.65246519677159" lon="-58.599697300324564"><ele>27.42857142857143</ele><time>2026-03-26T13:30:46Z</time></trkpt><trkpt lat="-34.65241987415814" lon="-58.59975374275142"><ele>27.57142857142857</ele><time>2026-03-26T13:30:47Z</time></trkpt><trkpt lat="-34.652372553071444" lon="-58.59981003664797"><ele>27.714285714285715</ele><time>2026-03-26T13:30:48Z</time></trkpt><trkpt lat="-34.652315680239376" lon="-58.59985477061418"><ele>27.857142857142858</ele><time>2026-03-26T13:30:48.999Z</time></trkpt><trkpt lat="-34.65223980657265" lon="-58.599953734767666"><ele>28.0</ele><time>2026-03-26T13:30:50.999Z</time></trkpt><trkpt lat="-34.65216492914807" lon="-58.60004290125637"><ele>28.000000000000004</ele><time>2026-03-26T13:30:52.999Z</time></trkpt><trkpt lat="-34.6521082885299" lon="-58.60011925592419"><ele>28.0</ele><time>2026-03-26T13:30:55.999Z</time></trkpt><trkpt lat="-34.65204636327016" lon="-58.60019043339258"><ele>28.0</ele><time>2026-03-26T13:30:57.999Z</time></trkpt><trkpt lat="-34.651997546804196" lon="-58.600252166205266"><ele>28.0</ele><time>2026-03-26T13:31:00.999Z</time></trkpt><trkpt lat="-34.651929611123094" lon="-58.60033660150455"><ele>28.000000000000004</ele><time>2026-03-26T13:31:03.999Z</time></trkpt><trkpt lat="-34.651859152588706" lon="-58.60043317292479"><ele>28.0</ele><time>2026-03-26T13:31:05.999Z</time></trkpt><trkpt lat="-34.65180110234496" lon="-58.60047459436566"><ele>28.000000000000004</ele><time>2026-03-26T13:31:06.999Z</time></trkpt><trkpt lat="-34.65172339923494" lon="-58.60055891483052"><ele>28.0</ele><time>2026-03-26T13:31:08.999Z</time></trkpt><trkpt lat="-34.65167606810526" lon="-58.60062621682981"><ele>28.0</ele><time>2026-03-26T13:31:12.999Z</time></trkpt><trkpt lat="-34.651622343110134" lon="-58.60070226294752"><ele>28.0</ele><time>2026-03-26T13:31:21Z</time></trkpt><trkpt lat="-34.651563140801045" lon="-58.60077648403818"><ele>28.000000000000004</ele><time>2026-03-26T13:31:24Z</time></trkpt><trkpt lat="-34.65150660259255" lon="-58.600850241648985"><ele>28.0</ele><time>2026-03-26T13:31:28Z</time></trkpt><trkpt lat="-34.651451802689955" lon="-58.60093062474781"><ele>28.0</ele><time>2026-03-26T13:31:30Z</time></trkpt><trkpt lat="-34.65137299696467" lon="-58.601037855724265"><ele>27.999999999999996</ele><time>2026-03-26T13:31:32Z</time></trkpt><trkpt lat="-34.65128452965915" lon="-58.60112844436449"><ele>27.999999999999996</ele><time>2026-03-26T13:31:34Z</time></trkpt><trkpt lat="-34.651235570573824" lon="-58.601183054346954"><ele>28.0</ele><time>2026-03-26T13:31:36Z</time></trkpt><trkpt lat="-34.651159519452975" lon="-58.60124490073088"><ele>28.0</ele><time>2026-03-26T13:31:41Z</time></trkpt><trkpt lat="-34.651065703297085" lon="-58.601218186301246"><ele>28.500000000000004</ele><time>2026-03-26T13:31:44Z</time></trkpt><trkpt lat="-34.65099228841316" lon="-58.601189717026934"><ele>29.0</ele><time>2026-03-26T13:31:46Z</time></trkpt><trkpt lat="-34.65102096279414" lon="-58.60109342005463"><ele>29.5</ele><time>2026-03-26T13:31:47Z</time></trkpt><trkpt lat="-34.65096028865642" lon="-58.60101869832238"><ele>30.0</ele><time>2026-03-26T13:31:49Z</time></trkpt><trkpt lat="-34.65088459415502" lon="-58.6009257265216"><ele>30.500000000000004</ele><time>2026-03-26T13:31:51Z</time></trkpt><trkpt lat="-34.65083827071088" lon="-58.600869025803746"><ele>31.0</ele><time>2026-03-26T13:31:52Z</time></trkpt><trkpt lat="-34.65075674526773" lon="-58.60076923721475"><ele>31.0</ele><time>2026-03-26T13:31:54Z</time></trkpt><trkpt lat="-34.65068952513974" lon="-58.60068695858799"><ele>31.000000000000004</ele><time>2026-03-26T13:31:56Z</time></trkpt><trkpt lat="-34.65064410404315" lon="-58.600631362364176"><ele>31.0</ele><time>2026-03-26T13:32:00Z</time></trkpt><trkpt lat="-34.65057777005949" lon="-58.60065555297979"><ele>31.0</ele><time>2026-03-26T13:32:05Z</time></trkpt><trkpt lat="-34.650609891045804" lon="-58.60058108962227"><ele>31.000000000000004</ele><time>2026-03-26T13:32:13Z</time></trkpt><trkpt lat="-34.65065982544459" lon="-58.6005284541038"><ele>31.0</ele><time>2026-03-26T13:32:30Z</time></trkpt><trkpt lat="-34.65071045900316" lon="-58.60047812952581"><ele>31.0</ele><time>2026-03-26T13:32:33Z</time></trkpt><trkpt lat="-34.650761371233656" lon="-58.60041916337513"><ele>31.0</ele><time>2026-03-26T13:32:40Z</time></trkpt><trkpt lat="-34.650676210317535" lon="-58.60047686424738"><ele>31.0</ele><time>2026-03-26T13:32:45Z</time></trkpt><trkpt lat="-34.65079148077478" lon="-58.60046705653507"><ele>31.0</ele><time>2026-03-26T13:33:57Z</time></trkpt></trkseg></trk></gpx>